MSC Maya — 3FNF8 — position and weather

sailwx.info

Track history (hours):
 
Tides and Currents Weather Stations Pressure Air Temp Water Temp Dewpoint Dewpoint Depression Visibility Wind Speed Wind Dir Waves Ship Positions

MSC Maya

Last reported at 2014-Nov-12 18:20 UTC. Time now 2014-Nov-27 17:17 UTC.
Position N 34°41' W 075°32'.
Warning: this ship's position is 14 days out of date.

Length 180 m; draft 8.3 m.

Type: Cargo ship. MMSI: 351384000.

Date/timePositionNaut miles runAvg speedWind from/ knotsBaromVisibWave heightAir tempDewpointWater temp
2014-Nov-12 18:20N 34°41' W 075°32'6611.3
2014-Nov-12 12:27N 35°43' W 075°01'  
2014-Nov-09 05:33N 37°57' W 076°10'1716.4
2014-Nov-09 04:31N 38°13' W 076°15'3316.7
2014-Nov-09 02:33N 38°45' W 076°26'1716.5
2014-Nov-09 01:33N 39°01' W 076°22'1212.5
2014-Nov-09 00:33N 39°12' W 076°30'4 3.6
2014-Nov-08 23:32N 39°15' W 076°33'0 0.0
2014-Nov-08 22:31N 39°15' W 076°33'0 0.0
2014-Nov-08 21:31N 39°15' W 076°33'0 0.0
2014-Nov-08 20:32N 39°15' W 076°33'0 0.0
2014-Nov-08 19:32N 39°15' W 076°33'0 0.0
2014-Nov-08 18:32N 39°15' W 076°33'0 0.0
2014-Nov-08 17:32N 39°15' W 076°33'0 0.0
2014-Nov-08 16:34N 39°15' W 076°33'4 3.6
2014-Nov-08 15:34N 39°12' W 076°30'1110.6
2014-Nov-08 14:34N 39°03' W 076°23'1515.0
2014-Nov-08 13:33N 38°48' W 076°25'122 5.0
2014-Nov-07 13:16N 39°26' W 073°55'1113.4
2014-Nov-07 12:26N 39°37' W 073°53'1315.3
2014-Nov-07 11:33N 39°50' W 073°52'3811.3
2014-Nov-07 08:12N 40°28' W 073°52'711.0
2014-Nov-07 07:33N 40°31' W 074°01'9 9.1
2014-Nov-07 06:34N 40°39' W 074°08'2 2.5
2014-Nov-07 05:34N 40°41' W 074°09'0 0.0
2014-Nov-07 04:34N 40°41' W 074°09'0 0.0
2014-Nov-07 03:34N 40°41' W 074°09'0 0.0
2014-Nov-07 02:33N 40°41' W 074°09'0 0.0
2014-Nov-07 01:33N 40°41' W 074°09'0 0.0
2014-Nov-07 00:33N 40°41' W 074°09'0 0.0
2014-Nov-06 23:32N 40°41' W 074°09'0 0.0
2014-Nov-06 22:32N 40°41' W 074°09'0 0.0
2014-Nov-06 21:33N 40°41' W 074°09'0 0.0
2014-Nov-06 20:33N 40°41' W 074°09'0 0.0
2014-Nov-06 19:31N 40°41' W 074°09'0 0.0
2014-Nov-06 18:32N 40°41' W 074°09'0 0.0
2014-Nov-06 17:32N 40°41' W 074°09'0 0.0
2014-Nov-06 16:32N 40°41' W 074°09'0 0.0
2014-Nov-06 15:33N 40°41' W 074°09'0 0.0
2014-Nov-06 14:33N 40°41' W 074°09'0 0.0
2014-Nov-06 13:33N 40°41' W 074°09'0 0.0
2014-Nov-06 12:32N 40°41' W 074°09'0 0.0
2014-Nov-06 11:33N 40°41' W 074°09'2 1.9
2014-Nov-06 10:33N 40°39' W 074°09'5 5.4
2014-Nov-06 09:33N 40°37' W 074°03'1111.2
2014-Nov-06 08:33N 40°28' W 073°52'7 6.7
2014-Nov-06 07:33N 40°28' W 073°44'4 2.2
2014-Nov-06 05:32N 40°30' W 073°38'0 0.0
2014-Nov-06 04:23N 40°30' W 073°38'0 0.0
2014-Nov-06 03:32N 40°30' W 073°38'0 0.0
2014-Nov-06 02:32N 40°30' W 073°38'0 0.0
2014-Nov-06 01:32N 40°30' W 073°38'0 0.0
2014-Nov-05 23:32N 40°30' W 073°38'0 0.0
2014-Nov-05 22:32N 40°30' W 073°38'0 0.0
2014-Nov-05 21:14N 40°30' W 073°38'0 0.0
2014-Nov-05 20:32N 40°30' W 073°38'0 0.0
2014-Nov-05 19:20N 40°30' W 073°38'0 0.0
2014-Nov-05 18:20N 40°30' W 073°38'0 0.0
2014-Nov-05 14:14N 40°30' W 073°38'0 0.0
2014-Nov-05 13:29N 40°30' W 073°38'0 0.0
2014-Nov-05 12:32N 40°30' W 073°38'0 0.0
2014-Nov-05 11:29N 40°30' W 073°38'0 0.0
2014-Nov-05 10:34N 40°30' W 073°38'4 3.8
2014-Nov-05 09:34N 40°27' W 073°41'7 6.5
2014-Nov-05 08:29N 40°21' W 073°37'7 8.0
2014-Nov-05 07:34N 40°16' W 073°29'1212.4
2014-Nov-05 06:33N 40°09' W 073°16'1413.5
2014-Nov-05 05:33N 40°01' W 073°02'1413.5
2014-Nov-05 04:34N 39°54' W 072°47'1413.6
2014-Nov-05 03:33N 39°46' W 072°32'1413.6
2014-Nov-05 02:34N 39°39' W 072°17'1313.4
2014-Nov-05 01:33N 39°32' W 072°03'1313.1
2014-Nov-05 00:34N 39°25' W 071°48'1313.3
2014-Nov-04 23:34N 39°17' W 071°34'9 9.4
2014-Nov-04 22:33N 39°12' W 071°24'7 6.8
2014-Nov-04 21:34N 39°08' W 071°17'1515.2
2014-Nov-04 20:33N 38°60' W 071°00'1616.4
2014-Nov-04 19:33N 38°50' W 070°44'1616.4
2014-Nov-04 18:34N 38°40' W 070°27'1916.3
2014-Nov-04 17:22N 38°27' W 070°08'  
Track history (hours):
 
Tides and Currents Weather Stations Pressure Air Temp Water Temp Dewpoint Dewpoint Depression Visibility Wind Speed Wind Dir Waves Ship Positions

MSC Maya

Last reported at 2014-Nov-12 18:20 UTC. Time now 2014-Nov-27 17:17 UTC.
Position N 34°41' W 075°32'.
Warning: this ship's position is 14 days out of date.

Length 180 m; draft 8.3 m.

Type: Cargo ship. MMSI: 351384000.

Date/timePositionNaut miles runAvg speedWind from/ knotsBaromVisibWave heightAir tempDewpointWater temp
2014-Nov-12 18:20N 34°41' W 075°32'6611.3
2014-Nov-12 12:27N 35°43' W 075°01'  
2014-Nov-09 05:33N 37°57' W 076°10'1716.4
2014-Nov-09 04:31N 38°13' W 076°15'3316.7
2014-Nov-09 02:33N 38°45' W 076°26'1716.5
2014-Nov-09 01:33N 39°01' W 076°22'1212.5
2014-Nov-09 00:33N 39°12' W 076°30'4 3.6
2014-Nov-08 23:32N 39°15' W 076°33'0 0.0
2014-Nov-08 22:31N 39°15' W 076°33'0 0.0
2014-Nov-08 21:31N 39°15' W 076°33'0 0.0
2014-Nov-08 20:32N 39°15' W 076°33'0 0.0
2014-Nov-08 19:32N 39°15' W 076°33'0 0.0
2014-Nov-08 18:32N 39°15' W 076°33'0 0.0
2014-Nov-08 17:32N 39°15' W 076°33'0 0.0
2014-Nov-08 16:34N 39°15' W 076°33'4 3.6
2014-Nov-08 15:34N 39°12' W 076°30'1110.6
2014-Nov-08 14:34N 39°03' W 076°23'1515.0
2014-Nov-08 13:33N 38°48' W 076°25'122 5.0
2014-Nov-07 13:16N 39°26' W 073°55'1113.4
2014-Nov-07 12:26N 39°37' W 073°53'1315.3
2014-Nov-07 11:33N 39°50' W 073°52'3811.3
2014-Nov-07 08:12N 40°28' W 073°52'711.0
2014-Nov-07 07:33N 40°31' W 074°01'9 9.1
2014-Nov-07 06:34N 40°39' W 074°08'2 2.5
2014-Nov-07 05:34N 40°41' W 074°09'0 0.0
2014-Nov-07 04:34N 40°41' W 074°09'0 0.0
2014-Nov-07 03:34N 40°41' W 074°09'0 0.0
2014-Nov-07 02:33N 40°41' W 074°09'0 0.0
2014-Nov-07 01:33N 40°41' W 074°09'0 0.0
2014-Nov-07 00:33N 40°41' W 074°09'0 0.0
2014-Nov-06 23:32N 40°41' W 074°09'0 0.0
2014-Nov-06 22:32N 40°41' W 074°09'0 0.0
2014-Nov-06 21:33N 40°41' W 074°09'0 0.0
2014-Nov-06 20:33N 40°41' W 074°09'0 0.0
2014-Nov-06 19:31N 40°41' W 074°09'0 0.0
2014-Nov-06 18:32N 40°41' W 074°09'0 0.0
2014-Nov-06 17:32N 40°41' W 074°09'0 0.0
2014-Nov-06 16:32N 40°41' W 074°09'0 0.0
2014-Nov-06 15:33N 40°41' W 074°09'0 0.0
2014-Nov-06 14:33N 40°41' W 074°09'0 0.0
2014-Nov-06 13:33N 40°41' W 074°09'0 0.0
2014-Nov-06 12:32N 40°41' W 074°09'0 0.0
2014-Nov-06 11:33N 40°41' W 074°09'2 1.9
2014-Nov-06 10:33N 40°39' W 074°09'5 5.4
2014-Nov-06 09:33N 40°37' W 074°03'1111.2
2014-Nov-06 08:33N 40°28' W 073°52'7 6.7
2014-Nov-06 07:33N 40°28' W 073°44'4 2.2
2014-Nov-06 05:32N 40°30' W 073°38'0 0.0
2014-Nov-06 04:23N 40°30' W 073°38'0 0.0
2014-Nov-06 03:32N 40°30' W 073°38'0 0.0
2014-Nov-06 02:32N 40°30' W 073°38'0 0.0
2014-Nov-06 01:32N 40°30' W 073°38'0 0.0
2014-Nov-05 23:32N 40°30' W 073°38'0 0.0
2014-Nov-05 22:32N 40°30' W 073°38'0 0.0
2014-Nov-05 21:14N 40°30' W 073°38'0 0.0
2014-Nov-05 20:32N 40°30' W 073°38'0 0.0
2014-Nov-05 19:20N 40°30' W 073°38'0 0.0
2014-Nov-05 18:20N 40°30' W 073°38'0 0.0
2014-Nov-05 14:14N 40°30' W 073°38'0 0.0
2014-Nov-05 13:29N 40°30' W 073°38'0 0.0
2014-Nov-05 12:32N 40°30' W 073°38'0 0.0
2014-Nov-05 11:29N 40°30' W 073°38'0 0.0
2014-Nov-05 10:34N 40°30' W 073°38'4 3.8
2014-Nov-05 09:34N 40°27' W 073°41'7 6.5
2014-Nov-05 08:29N 40°21' W 073°37'7 8.0
2014-Nov-05 07:34N 40°16' W 073°29'1212.4
2014-Nov-05 06:33N 40°09' W 073°16'1413.5
2014-Nov-05 05:33N 40°01' W 073°02'1413.5
2014-Nov-05 04:34N 39°54' W 072°47'1413.6
2014-Nov-05 03:33N 39°46' W 072°32'1413.6
2014-Nov-05 02:34N 39°39' W 072°17'1313.4
2014-Nov-05 01:33N 39°32' W 072°03'1313.1
2014-Nov-05 00:34N 39°25' W 071°48'1313.3
2014-Nov-04 23:34N 39°17' W 071°34'9 9.4
2014-Nov-04 22:33N 39°12' W 071°24'7 6.8
2014-Nov-04 21:34N 39°08' W 071°17'1515.2
2014-Nov-04 20:33N 38°60' W 071°00'1616.4
2014-Nov-04 19:33N 38°50' W 070°44'1616.4
2014-Nov-04 18:34N 38°40' W 070°27'1916.3
2014-Nov-04 17:22N 38°27' W 070°08'  

Dump ship's entire track history